sensor_id;sensor_type;location;lat;lon;timestamp;pressure;altitude;pressure_sealevel;temperature;humidity
63399;BME280;49533;-34.520;150.798;2022-08-19T00:02:01;100134.41;;;13.73;59.61
63399;BME280;49533;-34.520;150.798;2022-08-19T00:04:35;100143.03;;;13.75;59.60
63399;BME280;49533;-34.520;150.798;2022-08-19T00:07:04;100144.63;;;13.76;59.54
63399;BME280;49533;-34.520;150.798;2022-08-19T00:09:32;100145.91;;;13.79;59.97
63399;BME280;49533;-34.520;150.798;2022-08-19T00:11:59;100141.22;;;13.79;59.59
63399;BME280;49533;-34.520;150.798;2022-08-19T00:14:27;100147.16;;;13.81;59.86
63399;BME280;49533;-34.520;150.798;2022-08-19T00:16:56;100152.25;;;13.83;59.57
63399;BME280;49533;-34.520;150.798;2022-08-19T00:19:23;100148.06;;;13.85;59.72
63399;BME280;49533;-34.520;150.798;2022-08-19T00:21:51;100152.03;;;13.88;59.46
63399;BME280;49533;-34.520;150.798;2022-08-19T00:24:18;100152.50;;;13.90;59.55
63399;BME280;49533;-34.520;150.798;2022-08-19T00:26:46;100146.72;;;13.91;59.55
63399;BME280;49533;-34.520;150.798;2022-08-19T00:29:15;100146.81;;;13.95;59.53
63399;BME280;49533;-34.520;150.798;2022-08-19T00:31:43;100145.13;;;14.03;60.20
63399;BME280;49533;-34.520;150.798;2022-08-19T00:34:12;100144.22;;;14.11;60.60
63399;BME280;49533;-34.520;150.798;2022-08-19T00:36:42;100132.19;;;14.12;60.50
63399;BME280;49533;-34.520;150.798;2022-08-19T00:39:10;100140.63;;;14.19;60.47
63399;BME280;49533;-34.520;150.798;2022-08-19T00:41:38;100132.63;;;14.26;60.70
63399;BME280;49533;-34.520;150.798;2022-08-19T00:44:06;100139.03;;;14.30;60.53
63399;BME280;49533;-34.520;150.798;2022-08-19T00:46:35;100122.72;;;14.34;60.97
63399;BME280;49533;-34.520;150.798;2022-08-19T00:49:12;100126.72;;;14.36;60.59
63399;BME280;49533;-34.520;150.798;2022-08-19T00:51:42;100118.97;;;14.39;59.70
63399;BME280;49533;-34.520;150.798;2022-08-19T00:54:12;100115.13;;;14.40;59.70
63399;BME280;49533;-34.520;150.798;2022-08-19T00:56:40;100104.50;;;14.38;59.94
63399;BME280;49533;-34.520;150.798;2022-08-19T00:59:09;100103.50;;;14.43;59.90
63399;BME280;49533;-34.520;150.798;2022-08-19T01:01:42;100100.84;;;14.46;60.43
63399;BME280;49533;-34.520;150.798;2022-08-19T01:04:10;100109.19;;;14.50;61.23
63399;BME280;49533;-34.520;150.798;2022-08-19T01:06:38;100104.63;;;14.54;61.24
63399;BME280;49533;-34.520;150.798;2022-08-19T01:09:08;100091.75;;;14.54;61.81
63399;BME280;49533;-34.520;150.798;2022-08-19T01:11:38;100089.16;;;14.58;61.34
63399;BME280;49533;-34.520;150.798;2022-08-19T01:14:07;100088.47;;;14.61;61.39
63399;BME280;49533;-34.520;150.798;2022-08-19T01:16:35;100081.03;;;14.62;60.72
63399;BME280;49533;-34.520;150.798;2022-08-19T01:19:18;100071.72;;;14.63;60.28
63399;BME280;49533;-34.520;150.798;2022-08-19T01:24:40;100068.50;;;14.73;60.49
63399;BME280;49533;-34.520;150.798;2022-08-19T01:27:08;100071.34;;;14.76;60.27
63399;BME280;49533;-34.520;150.798;2022-08-19T01:29:39;100073.03;;;14.81;59.68
63399;BME280;49533;-34.520;150.798;2022-08-19T01:32:10;100073.59;;;14.87;60.24
63399;BME280;49533;-34.520;150.798;2022-08-19T01:34:38;100065.84;;;14.89;60.47
63399;BME280;49533;-34.520;150.798;2022-08-19T01:37:09;100066.72;;;14.93;60.92
63399;BME280;49533;-34.520;150.798;2022-08-19T01:39:39;100060.44;;;14.92;60.61
63399;BME280;49533;-34.520;150.798;2022-08-19T01:42:07;100060.13;;;14.94;60.42
63399;BME280;49533;-34.520;150.798;2022-08-19T01:44:37;100059.88;;;14.99;60.41
63399;BME280;49533;-34.520;150.798;2022-08-19T01:47:05;100065.78;;;15.01;60.60
63399;BME280;49533;-34.520;150.798;2022-08-19T01:49:32;100049.72;;;14.99;60.24
63399;BME280;49533;-34.520;150.798;2022-08-19T01:52:00;100049.25;;;14.97;59.54
63399;BME280;49533;-34.520;150.798;2022-08-19T01:54:27;100057.13;;;14.99;58.71
63399;BME280;49533;-34.520;150.798;2022-08-19T01:57:00;100058.72;;;15.00;58.01
63399;BME280;49533;-34.520;150.798;2022-08-19T01:59:28;100064.56;;;14.98;57.72
63399;BME280;49533;-34.520;150.798;2022-08-19T02:01:56;100064.56;;;14.98;57.47
63399;BME280;49533;-34.520;150.798;2022-08-19T02:04:24;100063.72;;;14.98;57.55
63399;BME280;49533;-34.520;150.798;2022-08-19T02:06:52;100050.41;;;14.96;57.45
63399;BME280;49533;-34.520;150.798;2022-08-19T02:09:19;100061.69;;;14.95;57.46
63399;BME280;49533;-34.520;150.798;2022-08-19T02:11:46;100061.25;;;14.93;57.36
63399;BME280;49533;-34.520;150.798;2022-08-19T02:14:13;100057.38;;;14.94;57.32
63399;BME280;49533;-34.520;150.798;2022-08-19T02:16:40;100062.06;;;14.93;57.31
63399;BME280;49533;-34.520;150.798;2022-08-19T02:19:07;100059.75;;;14.95;57.00
63399;BME280;49533;-34.520;150.798;2022-08-19T02:21:34;100058.97;;;14.95;57.04
63399;BME280;49533;-34.520;150.798;2022-08-19T02:24:02;100049.63;;;14.96;57.27
63399;BME280;49533;-34.520;150.798;2022-08-19T02:26:31;100046.06;;;14.95;57.23
63399;BME280;49533;-34.520;150.798;2022-08-19T02:28:58;100043.47;;;14.99;57.32
63399;BME280;49533;-34.520;150.798;2022-08-19T02:31:27;100043.47;;;14.99;57.14
63399;BME280;49533;-34.520;150.798;2022-08-19T02:33:55;100037.63;;;15.00;57.15
63399;BME280;49533;-34.520;150.798;2022-08-19T02:36:23;100029.41;;;15.00;57.13
63399;BME280;49533;-34.520;150.798;2022-08-19T02:38:51;100040.91;;;15.06;57.08
63399;BME280;49533;-34.520;150.798;2022-08-19T02:41:20;100041.34;;;15.08;57.07
63399;BME280;49533;-34.520;150.798;2022-08-19T02:43:48;100043.41;;;15.11;57.19
63399;BME280;49533;-34.520;150.798;2022-08-19T02:46:26;100034.84;;;15.13;57.10
63399;BME280;49533;-34.520;150.798;2022-08-19T02:48:58;100032.22;;;15.16;57.16
63399;BME280;49533;-34.520;150.798;2022-08-19T02:51:29;100021.69;;;15.18;57.16
63399;BME280;49533;-34.520;150.798;2022-08-19T02:53:57;100018.94;;;15.18;57.11
63399;BME280;49533;-34.520;150.798;2022-08-19T02:56:25;100017.91;;;15.23;57.14
63399;BME280;49533;-34.520;150.798;2022-08-19T02:58:55;100025.78;;;15.25;57.16
63399;BME280;49533;-34.520;150.798;2022-08-19T03:01:28;100021.09;;;15.25;57.26
63399;BME280;49533;-34.520;150.798;2022-08-19T03:03:59;100018.00;;;15.27;57.48
63399;BME280;49533;-34.520;150.798;2022-08-19T03:06:27;100016.84;;;15.28;57.77
63399;BME280;49533;-34.520;150.798;2022-08-19T03:08:56;100023.13;;;15.28;57.61
63399;BME280;49533;-34.520;150.798;2022-08-19T03:11:26;100031.44;;;15.32;57.79
63399;BME280;49533;-34.520;150.798;2022-08-19T03:13:54;100017.75;;;15.32;57.73
63399;BME280;49533;-34.520;150.798;2022-08-19T03:16:24;100023.56;;;15.30;57.72
63399;BME280;49533;-34.520;150.798;2022-08-19T03:18:53;100022.78;;;15.30;58.20
63399;BME280;49533;-34.520;150.798;2022-08-19T03:21:23;100022.78;;;15.30;58.39
63399;BME280;49533;-34.520;150.798;2022-08-19T03:23:55;100029.13;;;15.34;58.28
63399;BME280;49533;-34.520;150.798;2022-08-19T03:26:22;100023.56;;;15.30;58.16
63399;BME280;49533;-34.520;150.798;2022-08-19T03:28:49;100042.81;;;15.34;58.32
63399;BME280;49533;-34.520;150.798;2022-08-19T03:31:20;100042.03;;;15.33;59.03
63399;BME280;49533;-34.520;150.798;2022-08-19T03:33:50;100035.69;;;15.29;59.17
63399;BME280;49533;-34.520;150.798;2022-08-19T03:36:21;100057.47;;;15.26;59.13
63399;BME280;49533;-34.520;150.798;2022-08-19T03:38:56;100055.44;;;15.22;60.04
63399;BME280;49533;-34.520;150.798;2022-08-19T03:41:30;100060.56;;;15.24;60.86
63399;BME280;49533;-34.520;150.798;2022-08-19T03:43:58;100069.56;;;15.25;60.68
63399;BME280;49533;-34.520;150.798;2022-08-19T03:46:28;100067.63;;;15.25;60.55
63399;BME280;49533;-34.520;150.798;2022-08-19T03:48:57;100059.75;;;15.23;60.34
63399;BME280;49533;-34.520;150.798;2022-08-19T03:51:32;100066.81;;;15.25;60.29
63399;BME280;49533;-34.520;150.798;2022-08-19T03:54:02;100062.94;;;15.26;60.27
63399;BME280;49533;-34.520;150.798;2022-08-19T03:56:30;100072.75;;;15.27;60.17
63399;BME280;49533;-34.520;150.798;2022-08-19T03:58:58;100070.34;;;15.25;59.98
63399;BME280;49533;-34.520;150.798;2022-08-19T04:01:27;100077.28;;;15.35;59.87
63399;BME280;49533;-34.520;150.798;2022-08-19T04:03:56;100079.38;;;15.41;60.20
63399;BME280;49533;-34.520;150.798;2022-08-19T04:06:31;100079.25;;;15.50;60.23
63399;BME280;49533;-34.520;150.798;2022-08-19T04:09:00;100076.25;;;15.55;59.73
63399;BME280;49533;-34.520;150.798;2022-08-19T04:11:34;100080.22;;;15.58;59.67
63399;BME280;49533;-34.520;150.798;2022-08-19T04:14:01;100086.03;;;15.56;59.23
63399;BME280;49533;-34.520;150.798;2022-08-19T04:16:29;100086.03;;;15.56;58.94
63399;BME280;49533;-34.520;150.798;2022-08-19T04:19:00;100069.16;;;15.54;58.52
63399;BME280;49533;-34.520;150.798;2022-08-19T04:21:28;100084.81;;;15.54;58.22
63399;BME280;49533;-34.520;150.798;2022-08-19T04:23:56;100083.94;;;15.50;57.88
63399;BME280;49533;-34.520;150.798;2022-08-19T04:26:29;100089.75;;;15.48;57.34
63399;BME280;49533;-34.520;150.798;2022-08-19T04:29:00;100106.88;;;15.45;59.76
63399;BME280;49533;-34.520;150.798;2022-08-19T04:31:30;100106.72;;;15.26;62.96
63399;BME280;49533;-34.520;150.798;2022-08-19T04:34:00;100101.03;;;15.18;62.91
63399;BME280;49533;-34.520;150.798;2022-08-19T04:36:30;100099.31;;;15.26;61.96
63399;BME280;49533;-34.520;150.798;2022-08-19T04:39:00;100115.13;;;15.33;61.35
63399;BME280;49533;-34.520;150.798;2022-08-19T04:41:28;100116.03;;;15.37;61.22
63399;BME280;49533;-34.520;150.798;2022-08-19T04:44:13;100121.16;;;15.38;61.34
63399;BME280;49533;-34.520;150.798;2022-08-19T04:46:45;100134.13;;;15.41;61.27
63399;BME280;49533;-34.520;150.798;2022-08-19T04:49:14;100140.06;;;15.43;60.97
63399;BME280;49533;-34.520;150.798;2022-08-19T04:51:44;100158.09;;;15.44;60.93
63399;BME280;49533;-34.520;150.798;2022-08-19T04:54:14;100160.03;;;15.44;60.68
63399;BME280;49533;-34.520;150.798;2022-08-19T04:56:41;100181.59;;;15.46;60.87
63399;BME280;49533;-34.520;150.798;2022-08-19T04:59:08;100172.91;;;15.43;60.79
63399;BME280;49533;-34.520;150.798;2022-08-19T05:01:37;100184.75;;;15.19;63.20
63399;BME280;49533;-34.520;150.798;2022-08-19T05:04:06;100180.47;;;14.94;63.59
63399;BME280;49533;-34.520;150.798;2022-08-19T05:06:34;100183.53;;;15.05;63.03
63399;BME280;49533;-34.520;150.798;2022-08-19T05:09:03;100196.72;;;15.15;62.32
63399;BME280;49533;-34.520;150.798;2022-08-19T05:11:35;100203.53;;;15.21;61.94
63399;BME280;49533;-34.520;150.798;2022-08-19T05:14:06;100213.81;;;15.24;62.02
63399;BME280;49533;-34.520;150.798;2022-08-19T05:16:33;100213.00;;;15.23;62.17
63399;BME280;49533;-34.520;150.798;2022-08-19T05:19:00;100209.47;;;15.23;61.89
63399;BME280;49533;-34.520;150.798;2022-08-19T05:21:46;100214.63;;;15.25;61.69
63399;BME280;49533;-34.520;150.798;2022-08-19T05:24:31;100227.16;;;15.26;61.51
63399;BME280;49533;-34.520;150.798;2022-08-19T05:27:00;100231.03;;;15.25;61.81
63399;BME280;49533;-34.520;150.798;2022-08-19T05:29:29;100244.72;;;15.25;61.80
63399;BME280;49533;-34.520;150.798;2022-08-19T05:32:01;100245.84;;;15.23;62.21
63399;BME280;49533;-34.520;150.798;2022-08-19T05:34:29;100267.31;;;15.21;61.91
63399;BME280;49533;-34.520;150.798;2022-08-19T05:36:58;100269.13;;;15.17;62.00
63399;BME280;49533;-34.520;150.798;2022-08-19T05:39:28;100283.84;;;15.13;61.97
63399;BME280;49533;-34.520;150.798;2022-08-19T05:42:00;100291.59;;;15.11;61.78
63399;BME280;49533;-34.520;150.798;2022-08-19T05:44:29;100302.44;;;15.07;61.84
63399;BME280;49533;-34.520;150.798;2022-08-19T05:47:01;100330.13;;;15.06;61.75
63399;BME280;49533;-34.520;150.798;2022-08-19T05:49:29;100322.50;;;14.99;61.94
63399;BME280;49533;-34.520;150.798;2022-08-19T05:51:56;100330.25;;;14.97;61.69
63399;BME280;49533;-34.520;150.798;2022-08-19T05:54:24;100352.81;;;14.94;61.61
63399;BME280;49533;-34.520;150.798;2022-08-19T05:56:52;100367.50;;;14.89;61.45
63399;BME280;49533;-34.520;150.798;2022-08-19T05:59:20;100379.91;;;14.20;63.72
63399;BME280;49533;-34.520;150.798;2022-08-19T06:01:49;100394.06;;;14.22;63.57
63399;BME280;49533;-34.520;150.798;2022-08-19T06:04:21;100393.00;;;14.48;62.90
63399;BME280;49533;-34.520;150.798;2022-08-19T06:06:50;100391.47;;;14.59;62.10
63399;BME280;49533;-34.520;150.798;2022-08-19T06:09:21;100404.94;;;14.64;61.86
63399;BME280;49533;-34.520;150.798;2022-08-19T06:11:51;100404.25;;;14.67;61.59
63399;BME280;49533;-34.520;150.798;2022-08-19T06:14:28;100409.72;;;14.67;61.50
63399;BME280;49533;-34.520;150.798;2022-08-19T06:16:57;100414.41;;;14.67;61.34
63399;BME280;49533;-34.520;150.798;2022-08-19T06:19:29;100420.66;;;14.67;61.37
63399;BME280;49533;-34.520;150.798;2022-08-19T06:21:57;100411.66;;;14.67;61.19
63399;BME280;49533;-34.520;150.798;2022-08-19T06:24:27;100426.97;;;14.68;61.13
63399;BME280;49533;-34.520;150.798;2022-08-19T06:26:55;100412.13;;;13.94;62.99
63399;BME280;49533;-34.520;150.798;2022-08-19T06:29:23;100418.63;;;13.51;64.50
63399;BME280;49533;-34.520;150.798;2022-08-19T06:31:53;100420.81;;;13.57;64.38
63399;BME280;49533;-34.520;150.798;2022-08-19T06:34:22;100435.69;;;13.39;64.82
63399;BME280;49533;-34.520;150.798;2022-08-19T06:36:51;100440.97;;;13.44;64.81
63399;BME280;49533;-34.520;150.798;2022-08-19T06:39:21;100439.31;;;13.60;64.35
63399;BME280;49533;-34.520;150.798;2022-08-19T06:41:52;100441.59;;;13.49;64.92
63399;BME280;49533;-34.520;150.798;2022-08-19T06:44:22;100457.31;;;13.82;63.64
63399;BME280;49533;-34.520;150.798;2022-08-19T06:46:49;100461.34;;;14.06;62.98
63399;BME280;49533;-34.520;150.798;2022-08-19T06:49:17;100464.16;;;14.18;62.20
63399;BME280;49533;-34.520;150.798;2022-08-19T06:51:46;100467.81;;;14.22;62.03
63399;BME280;49533;-34.520;150.798;2022-08-19T06:54:16;100472.31;;;14.27;61.63
63399;BME280;49533;-34.520;150.798;2022-08-19T06:56:44;100478.88;;;14.26;61.55
63399;BME280;49533;-34.520;150.798;2022-08-19T06:59:15;100471.03;;;14.24;61.31
63399;BME280;49533;-34.520;150.798;2022-08-19T07:01:52;100484.69;;;14.24;61.34
63399;BME280;49533;-34.520;150.798;2022-08-19T07:04:25;100499.63;;;14.27;61.14
63399;BME280;49533;-34.520;150.798;2022-08-19T07:07:10;100498.81;;;14.26;60.98
63399;BME280;49533;-34.520;150.798;2022-08-19T07:09:41;100504.09;;;13.81;61.32
63399;BME280;49533;-34.520;150.798;2022-08-19T07:12:10;100509.31;;;13.95;61.08
63399;BME280;49533;-34.520;150.798;2022-08-19T07:14:38;100519.38;;;14.03;61.00
63399;BME280;49533;-34.520;150.798;2022-08-19T07:17:08;100520.31;;;14.07;60.72
63399;BME280;49533;-34.520;150.798;2022-08-19T07:19:36;100526.41;;;14.12;60.64
63399;BME280;49533;-34.520;150.798;2022-08-19T07:22:05;100529.44;;;14.11;60.41
63399;BME280;49533;-34.520;150.798;2022-08-19T07:24:33;100537.31;;;14.12;60.44
63399;BME280;49533;-34.520;150.798;2022-08-19T07:27:02;100541.66;;;14.13;60.38
63399;BME280;49533;-34.520;150.798;2022-08-19T07:29:31;100539.75;;;14.14;60.25
63399;BME280;49533;-34.520;150.798;2022-08-19T07:32:00;100539.38;;;14.16;60.13
63399;BME280;49533;-34.520;150.798;2022-08-19T07:34:29;100544.25;;;14.10;60.17
63399;BME280;49533;-34.520;150.798;2022-08-19T07:36:57;100546.97;;;14.10;60.18
63399;BME280;49533;-34.520;150.798;2022-08-19T07:39:27;100556.31;;;14.09;60.12
63399;BME280;49533;-34.520;150.798;2022-08-19T07:41:57;100555.03;;;14.06;60.18
63399;BME280;49533;-34.520;150.798;2022-08-19T07:44:24;100560.16;;;14.08;60.07
63399;BME280;49533;-34.520;150.798;2022-08-19T07:46:54;100569.97;;;14.09;60.04
63399;BME280;49533;-34.520;150.798;2022-08-19T07:49:22;100564.97;;;14.11;60.04
63399;BME280;49533;-34.520;150.798;2022-08-19T07:51:52;100570.44;;;14.11;59.88
63399;BME280;49533;-34.520;150.798;2022-08-19T07:54:25;100571.56;;;14.10;60.14
63399;BME280;49533;-34.520;150.798;2022-08-19T07:56:53;100581.03;;;14.12;59.87
63399;BME280;49533;-34.520;150.798;2022-08-19T07:59:21;100584.44;;;14.09;60.02
63399;BME280;49533;-34.520;150.798;2022-08-19T08:01:49;100594.09;;;14.07;60.00
63399;BME280;49533;-34.520;150.798;2022-08-19T08:04:17;100596.88;;;13.89;60.63
63399;BME280;49533;-34.520;150.798;2022-08-19T08:07:04;100599.06;;;14.05;60.38
63399;BME280;49533;-34.520;150.798;2022-08-19T08:09:50;100603.03;;;14.16;60.05
63399;BME280;49533;-34.520;150.798;2022-08-19T08:12:27;100615.88;;;14.24;60.05
63399;BME280;49533;-34.520;150.798;2022-08-19T08:14:57;100616.47;;;14.30;59.78
63399;BME280;49533;-34.520;150.798;2022-08-19T08:17:29;100622.41;;;14.32;59.60
63399;BME280;49533;-34.520;150.798;2022-08-19T08:19:56;100627.22;;;14.35;59.82
63399;BME280;49533;-34.520;150.798;2022-08-19T08:22:24;100628.03;;;14.35;59.55
63399;BME280;49533;-34.520;150.798;2022-08-19T08:25:13;100628.03;;;14.35;59.69
63399;BME280;49533;-34.520;150.798;2022-08-19T08:27:42;100623.50;;;14.40;59.59
63399;BME280;49533;-34.520;150.798;2022-08-19T08:30:15;100625.88;;;14.41;59.50
63399;BME280;49533;-34.520;150.798;2022-08-19T08:32:43;100621.22;;;14.42;59.42
63399;BME280;49533;-34.520;150.798;2022-08-19T08:35:16;100630.25;;;14.42;59.50
63399;BME280;49533;-34.520;150.798;2022-08-19T08:37:45;100628.97;;;14.40;59.97
63399;BME280;49533;-34.520;150.798;2022-08-19T08:43:06;100639.09;;;14.39;59.40
63399;BME280;49533;-34.520;150.798;2022-08-19T08:45:37;100634.44;;;14.40;59.30
63399;BME280;49533;-34.520;150.798;2022-08-19T08:48:16;100632.81;;;14.39;59.47
63399;BME280;49533;-34.520;150.798;2022-08-19T08:50:45;100641.03;;;14.39;59.44
63399;BME280;49533;-34.520;150.798;2022-08-19T08:53:19;100635.91;;;14.37;59.42
63399;BME280;49533;-34.520;150.798;2022-08-19T08:55:46;100635.91;;;14.37;59.12
63399;BME280;49533;-34.520;150.798;2022-08-19T08:58:25;100637.97;;;14.40;59.09
63399;BME280;49533;-34.520;150.798;2022-08-19T09:00:53;100632.03;;;14.38;59.03
63399;BME280;49533;-34.520;150.798;2022-08-19T09:03:25;100636.34;;;14.39;59.12
63399;BME280;49533;-34.520;150.798;2022-08-19T09:06:12;100639.56;;;14.41;58.96
63399;BME280;49533;-34.520;150.798;2022-08-19T09:12:07;100642.16;;;14.38;59.01
63399;BME280;49533;-34.520;150.798;2022-08-19T09:14:52;100646.84;;;14.37;58.82
63399;BME280;49533;-34.520;150.798;2022-08-19T09:17:24;100644.09;;;14.37;58.69
63399;BME280;49533;-34.520;150.798;2022-08-19T09:20:19;100650.38;;;14.38;58.70
63399;BME280;49533;-34.520;150.798;2022-08-19T09:22:46;100654.22;;;14.36;58.63
63399;BME280;49533;-34.520;150.798;2022-08-19T09:25:18;100661.63;;;14.36;58.48
63399;BME280;49533;-34.520;150.798;2022-08-19T09:27:46;100659.22;;;14.34;58.62
63399;BME280;49533;-34.520;150.798;2022-08-19T09:30:17;100663.06;;;14.33;58.54
63399;BME280;49533;-34.520;150.798;2022-08-19T09:32:45;100674.34;;;14.32;58.52
63399;BME280;49533;-34.520;150.798;2022-08-19T09:35:13;100677.09;;;14.32;58.54
63399;BME280;49533;-34.520;150.798;2022-08-19T09:37:42;100687.19;;;14.31;58.25
63399;BME280;49533;-34.520;150.798;2022-08-19T09:40:11;100676.25;;;14.31;58.38
63399;BME280;49533;-34.520;150.798;2022-08-19T09:42:38;100696.06;;;14.28;58.51
63399;BME280;49533;-34.520;150.798;2022-08-19T09:45:06;100695.25;;;14.28;58.38
63399;BME280;49533;-34.520;150.798;2022-08-19T09:47:33;100696.22;;;14.23;58.44
63399;BME280;49533;-34.520;150.798;2022-08-19T09:50:06;100698.47;;;14.21;58.44
63399;BME280;49533;-34.520;150.798;2022-08-19T09:52:33;100696.91;;;14.20;57.98
63399;BME280;49533;-34.520;150.798;2022-08-19T09:55:09;100699.81;;;14.15;58.42
63399;BME280;49533;-34.520;150.798;2022-08-19T09:57:37;100707.69;;;14.17;58.12
63399;BME280;49533;-34.520;150.798;2022-08-19T10:00:07;100711.22;;;14.17;58.12
63399;BME280;49533;-34.520;150.798;2022-08-19T10:02:35;100717.78;;;14.16;58.06
63399;BME280;49533;-34.520;150.798;2022-08-19T10:05:03;100718.31;;;14.09;57.90
63399;BME280;49533;-34.520;150.798;2022-08-19T10:07:48;100717.81;;;14.07;58.02
63399;BME280;49533;-34.520;150.798;2022-08-19T10:10:16;100720.41;;;14.04;57.80
63399;BME280;49533;-34.520;150.798;2022-08-19T10:12:43;100726.34;;;14.06;57.60
63399;BME280;49533;-34.520;150.798;2022-08-19T10:15:14;100716.56;;;14.05;57.77
63399;BME280;49533;-34.520;150.798;2022-08-19T10:17:41;100720.41;;;14.04;57.87
63399;BME280;49533;-34.520;150.798;2022-08-19T10:20:08;100722.31;;;14.03;57.47
63399;BME280;49533;-34.520;150.798;2022-08-19T10:22:35;100725.88;;;14.04;57.68
63399;BME280;49533;-34.520;150.798;2022-08-19T10:25:04;100718.81;;;14.03;57.51
63399;BME280;49533;-34.520;150.798;2022-08-19T10:27:32;100728.13;;;14.02;57.34
63399;BME280;49533;-34.520;150.798;2022-08-19T10:29:59;100735.53;;;14.01;57.21
63399;BME280;49533;-34.520;150.798;2022-08-19T10:32:26;100730.25;;;13.96;57.27
63399;BME280;49533;-34.520;150.798;2022-08-19T10:34:55;100738.75;;;13.95;57.25
63399;BME280;49533;-34.520;150.798;2022-08-19T10:37:22;100739.53;;;13.95;57.30
63399;BME280;49533;-34.520;150.798;2022-08-19T10:39:49;100737.16;;;13.94;56.95
63399;BME280;49533;-34.520;150.798;2022-08-19T10:42:17;100745.34;;;13.94;57.10
63399;BME280;49533;-34.520;150.798;2022-08-19T10:44:44;100741.00;;;13.92;57.15
63399;BME280;49533;-34.520;150.798;2022-08-19T10:47:12;100738.59;;;13.91;57.20
63399;BME280;49533;-34.520;150.798;2022-08-19T10:49:40;100742.31;;;13.86;56.97
63399;BME280;49533;-34.520;150.798;2022-08-19T10:52:26;100746.63;;;13.87;56.74
63399;BME280;49533;-34.520;150.798;2022-08-19T10:55:06;100753.22;;;13.86;56.85
63399;BME280;49533;-34.520;150.798;2022-08-19T10:57:51;100753.53;;;13.85;56.82
63399;BME280;49533;-34.520;150.798;2022-08-19T11:00:20;100752.75;;;13.84;56.94
63399;BME280;49533;-34.520;150.798;2022-08-19T11:02:47;100744.06;;;13.82;56.77
63399;BME280;49533;-34.520;150.798;2022-08-19T11:05:15;100758.84;;;13.81;56.84
63399;BME280;49533;-34.520;150.798;2022-08-19T11:07:44;100749.69;;;13.77;56.44
63399;BME280;49533;-34.520;150.798;2022-08-19T11:10:13;100764.13;;;13.78;56.85
63399;BME280;49533;-34.520;150.798;2022-08-19T11:12:45;100768.00;;;13.77;56.61
63399;BME280;49533;-34.520;150.798;2022-08-19T11:15:12;100759.19;;;13.71;56.56
63399;BME280;49533;-34.520;150.798;2022-08-19T11:17:40;100766.88;;;13.69;56.89
63399;BME280;49533;-34.520;150.798;2022-08-19T11:20:08;100754.84;;;13.70;56.61
63399;BME280;49533;-34.520;150.798;2022-08-19T11:22:35;100762.22;;;13.69;56.43
63399;BME280;49533;-34.520;150.798;2022-08-19T11:25:02;100755.47;;;13.67;56.67
63399;BME280;49533;-34.520;150.798;2022-08-19T11:27:30;100754.38;;;13.68;56.52
63399;BME280;49533;-34.520;150.798;2022-08-19T11:29:57;100755.47;;;13.67;56.42
63399;BME280;49533;-34.520;150.798;2022-08-19T11:32:24;100753.88;;;13.66;56.40
63399;BME280;49533;-34.520;150.798;2022-08-19T11:34:51;100751.47;;;13.64;56.23
63399;BME280;49533;-34.520;150.798;2022-08-19T11:37:18;100757.28;;;13.63;56.58
63399;BME280;49533;-34.520;150.798;2022-08-19T11:39:46;100759.50;;;13.61;56.33
63399;BME280;49533;-34.520;150.798;2022-08-19T11:42:13;100755.16;;;13.60;56.46
63399;BME280;49533;-34.520;150.798;2022-08-19T11:44:58;100762.56;;;13.59;56.62
63399;BME280;49533;-34.520;150.798;2022-08-19T11:47:25;100755.81;;;13.57;56.36
63399;BME280;49533;-34.520;150.798;2022-08-19T11:49:52;100754.53;;;13.54;56.49
63399;BME280;49533;-34.520;150.798;2022-08-19T11:52:19;100759.19;;;13.54;56.47
63399;BME280;49533;-34.520;150.798;2022-08-19T11:54:46;100748.56;;;13.52;56.42
63399;BME280;49533;-34.520;150.798;2022-08-19T11:57:13;100758.69;;;13.52;56.58
63399;BME280;49533;-34.520;150.798;2022-08-19T11:59:49;100758.22;;;13.49;56.43
63399;BME280;49533;-34.520;150.798;2022-08-19T12:02:16;100764.81;;;13.48;56.35
63399;BME280;49533;-34.520;150.798;2022-08-19T12:04:43;100764.31;;;13.46;56.29
63399;BME280;49533;-34.520;150.798;2022-08-19T12:07:10;100762.72;;;13.45;56.19
63399;BME280;49533;-34.520;150.798;2022-08-19T12:09:37;100762.22;;;13.43;56.57
63399;BME280;49533;-34.520;150.798;2022-08-19T12:12:05;100764.97;;;13.43;56.43
63399;BME280;49533;-34.520;150.798;2022-08-19T12:14:33;100768.66;;;13.39;56.41
63399;BME280;49533;-34.520;150.798;2022-08-19T12:17:01;100761.25;;;13.39;56.33
63399;BME280;49533;-34.520;150.798;2022-08-19T12:19:30;100763.19;;;13.39;56.54
63399;BME280;49533;-34.520;150.798;2022-08-19T12:22:01;100756.44;;;13.36;56.31
63399;BME280;49533;-34.520;150.798;2022-08-19T12:24:32;100758.69;;;13.34;56.53
63399;BME280;49533;-34.520;150.798;2022-08-19T12:27:00;100756.94;;;13.30;56.12
63399;BME280;49533;-34.520;150.798;2022-08-19T12:29:29;100754.50;;;13.28;56.39
63399;BME280;49533;-34.520;150.798;2022-08-19T12:31:57;100755.66;;;13.27;56.32
63399;BME280;49533;-34.520;150.798;2022-08-19T12:34:32;100754.81;;;13.26;56.20
63399;BME280;49533;-34.520;150.798;2022-08-19T12:37:02;100760.88;;;13.23;56.36
63399;BME280;49533;-34.520;150.798;2022-08-19T12:39:29;100748.69;;;13.21;55.90
63399;BME280;49533;-34.520;150.798;2022-08-19T12:41:57;100744.66;;;13.18;56.38
63399;BME280;49533;-34.520;150.798;2022-08-19T12:44:24;100759.25;;;13.14;55.62